Time;durP1;ratioP1;P1;durP2;ratioP2;P2;SDS_P1;SDS_P2;PMS_P1;PMS_P2;Temp;Humidity;BMP_temperature;BMP_pressure;BME280_temperature;BME280_humidity;BME280_pressure;Samples;Min_cycle;Max_cycle;Signal;HPM_P1;HPM_P2
2023/01/05 00:00:27;;;;;;;20.70;13.20;;;8.50;99.90;;;8.54;68.89;95782.13;4983282;28;20612;-56
2023/01/05 00:02:55;;;;;;;19.90;13.30;;;8.50;99.90;;;8.54;69.19;95777.72;4975422;28;20577;-55
2023/01/05 00:05:23;;;;;;;20.90;12.23;;;8.60;99.90;;;8.56;68.80;95794.16;4982637;28;20470;-56
2023/01/05 00:07:50;;;;;;;18.47;12.10;;;8.60;99.90;;;8.57;69.08;95785.38;4981899;28;20509;-57
2023/01/05 00:24:09;;;;;;;20.57;13.00;;;8.70;99.90;;;8.69;68.97;95762.72;4951142;28;20470;-57
2023/01/05 00:26:36;;;;;;;21.07;12.10;;;8.70;99.90;;;8.71;68.80;95763.44;4975459;28;20562;-56
2023/01/05 00:29:03;;;;;;;19.40;11.43;;;8.70;99.90;;;8.74;68.41;95763.22;4979837;28;20568;-57
2023/01/05 00:31:30;;;;;;;22.10;14.87;;;8.80;99.90;;;8.75;68.94;95757.03;4978656;28;20491;-57
2023/01/05 00:33:59;;;;;;;21.70;14.30;;;8.80;99.90;;;8.78;68.88;95763.84;4977658;28;20566;-57
2023/01/05 00:36:26;;;;;;;22.87;13.20;;;8.80;99.90;;;8.80;68.40;95751.47;4979790;28;20462;-55
2023/01/05 00:38:53;;;;;;;20.80;14.07;;;8.80;99.90;;;8.81;68.34;95750.50;4979671;28;20505;-57
2023/01/05 00:41:21;;;;;;;36.13;18.80;;;8.90;99.90;;;8.85;68.45;95748.53;4979257;28;20834;-57
2023/01/05 00:43:48;;;;;;;38.23;18.90;;;8.90;99.90;;;8.87;68.35;95747.47;4977045;28;20991;-55
2023/01/05 00:46:15;;;;;;;27.23;15.57;;;8.90;99.90;;;8.87;68.38;95751.88;4980672;28;20451;-55
2023/01/05 00:48:42;;;;;;;21.87;13.80;;;8.90;99.90;;;8.88;68.66;95743.91;4976520;28;20985;-58
2023/01/05 00:51:11;;;;;;;19.63;12.63;;;8.90;99.90;;;8.89;68.34;95748.22;4982038;28;20443;-56
2023/01/05 00:53:38;;;;;;;21.23;12.27;;;8.90;99.90;;;8.90;68.12;95751.66;4978765;28;21054;-56
2023/01/05 00:56:06;;;;;;;24.67;12.87;;;8.90;99.90;;;8.91;68.39;95750.72;4979522;28;20462;-57
2023/01/05 00:58:33;;;;;;;21.17;14.03;;;8.90;99.90;;;8.90;68.07;95752.50;4979470;28;20479;-56
2023/01/05 01:01:01;;;;;;;24.73;13.70;;;8.90;99.90;;;8.90;68.47;95749.88;4977221;28;20571;-56
2023/01/05 01:03:28;;;;;;;22.40;14.67;;;8.90;99.90;;;8.91;68.38;95751.56;4978614;28;20549;-54
2023/01/05 01:05:58;;;;;;;21.77;13.87;;;8.90;99.90;;;8.91;68.38;95750.72;4979703;28;20447;-55
2023/01/05 01:08:27;;;;;;;26.10;15.73;;;8.90;99.90;;;8.91;68.05;95751.56;4975789;28;20474;-56
2023/01/05 01:10:54;;;;;;;29.60;16.37;;;8.90;99.90;;;8.91;68.12;95750.72;4979454;28;20463;-56
2023/01/05 01:13:23;;;;;;;26.17;15.20;;;8.90;99.90;;;8.89;67.81;95753.47;4984627;28;20493;-56
2023/01/05 01:15:50;;;;;;;24.23;16.40;;;8.90;99.90;;;8.89;67.95;95750.84;4977120;28;20494;-57
2023/01/05 01:18:18;;;;;;;25.63;15.20;;;8.90;99.90;;;8.90;68.19;95747.25;4979438;28;20866;-57
2023/01/05 01:20:45;;;;;;;22.87;14.40;;;8.90;99.90;;;8.92;67.94;95744.50;4979948;28;20455;-57
2023/01/05 01:23:12;;;;;;;28.37;15.10;;;8.90;99.90;;;8.91;68.26;95733.19;4977408;28;21228;-53
2023/01/05 01:25:41;;;;;;;27.83;15.23;;;8.90;99.90;;;8.92;68.08;95729.63;4977420;28;20847;-56
2023/01/05 01:28:08;;;;;;;24.00;14.70;;;9.00;99.90;;;8.92;68.01;95724.38;4978153;28;20533;-58
2023/01/05 01:30:37;;;;;;;22.90;15.60;;;8.90;99.90;;;8.92;67.80;95719.13;4979627;28;20954;-55
2023/01/05 01:33:05;;;;;;;23.87;14.80;;;8.90;99.90;;;8.94;68.33;95722.47;4979254;28;20479;-55
2023/01/05 01:35:32;;;;;;;24.60;15.17;;;9.00;99.90;;;8.94;67.74;95711.97;4976373;28;20490;-56
2023/01/05 01:37:59;;;;;;;27.80;16.77;;;9.00;99.90;;;8.95;67.94;95715.44;4976837;28;20478;-56
2023/01/05 01:40:26;;;;;;;27.00;17.03;;;9.00;99.90;;;8.95;68.14;95707.56;4976248;28;20454;-55
2023/01/05 01:42:55;;;;;;;28.30;16.67;;;9.00;99.90;;;8.96;68.24;95710.06;4978010;28;20490;-57
2023/01/05 01:45:25;;;;;;;26.07;15.70;;;9.00;99.90;;;8.96;67.80;95699.59;4980494;28;20465;-56
2023/01/05 01:47:55;;;;;;;23.97;14.37;;;9.00;99.90;;;8.99;68.15;95692.47;4983373;28;20471;-56
2023/01/05 01:50:26;;;;;;;22.10;14.70;;;9.00;99.90;;;8.99;67.66;95693.28;4981270;28;20473;-57
2023/01/05 01:52:56;;;;;;;26.63;14.80;;;9.00;99.90;;;8.99;67.83;95687.22;4976290;28;20552;-57
2023/01/05 01:55:23;;;;;;;22.27;14.00;;;9.00;99.90;;;8.99;67.75;95684.59;4978217;28;20546;-56
2023/01/05 01:57:51;;;;;;;25.30;15.30;;;9.00;99.90;;;8.99;67.99;95684.59;4978437;28;20471;-56
2023/01/05 02:00:20;;;;;;;27.47;14.73;;;9.00;99.90;;;8.96;67.56;95678.59;4975072;28;20550;-56
2023/01/05 02:02:48;;;;;;;26.13;16.70;;;9.00;99.90;;;8.96;67.92;95675.16;4980519;28;20847;-56
2023/01/05 02:05:16;;;;;;;25.10;15.20;;;9.00;99.90;;;8.96;67.58;95670.72;4980633;28;20568;-53
2023/01/05 02:07:46;;;;;;;22.10;14.00;;;9.00;99.90;;;8.99;67.95;95666.22;4980908;28;20480;-57
2023/01/05 02:10:14;;;;;;;30.27;15.33;;;9.00;99.90;;;8.99;68.17;95661.81;4977207;28;20462;-56
2023/01/05 02:12:57;;;;;;;20.57;14.40;;;9.00;99.90;;;9.01;67.83;95664.31;4977893;28;20474;-57
2023/01/05 02:15:34;;;;;;;26.80;15.53;;;9.00;99.90;;;9.02;67.71;95655.50;4977656;28;20487;-57
2023/01/05 02:18:13;;;;;;;24.40;15.43;;;9.00;99.90;;;9.03;67.58;95657.16;4979709;28;20504;-56
2023/01/05 02:20:57;;;;;;;20.80;13.47;;;9.00;99.90;;;9.02;67.79;95658.13;4983250;28;20963;-56
2023/01/05 02:23:52;;;;;;;21.83;13.37;;;9.00;99.90;;;9.03;67.59;95659.78;4976020;28;20514;-56
2023/01/05 02:27:08;;;;;;;21.30;14.70;;;9.00;99.90;;;9.01;67.75;95652.03;4976780;28;21018;-55
2023/01/05 02:30:11;;;;;;;23.90;12.87;;;9.00;99.90;;;9.00;67.70;95653.00;4977897;28;20684;-55
2023/01/05 02:32:42;;;;;;;20.10;12.53;;;9.00;99.90;;;8.99;67.47;95658.34;4943074;28;20491;-57
2023/01/05 02:35:13;;;;;;;22.53;11.27;;;9.00;99.90;;;8.97;67.56;95653.22;4977468;28;20485;-56
2023/01/05 02:37:44;;;;;;;18.10;12.13;;;9.00;99.90;;;8.94;67.44;95659.50;4977897;28;20489;-56
2023/01/05 02:40:14;;;;;;;22.87;12.43;;;9.00;99.90;;;8.93;67.61;95652.56;4980150;28;20454;-55
2023/01/05 02:42:41;;;;;;;18.80;13.03;;;9.00;99.90;;;8.93;67.66;95649.97;4972726;28;20506;-57
2023/01/05 02:45:09;;;;;;;19.50;14.20;;;8.90;99.90;;;8.91;68.02;95649.25;4979571;28;20513;-55
2023/01/05 02:47:42;;;;;;;23.40;14.50;;;8.90;99.90;;;8.89;68.08;95640.66;4977724;28;20493;-56
2023/01/05 02:50:14;;;;;;;22.70;14.63;;;8.90;99.90;;;8.87;68.05;95631.19;4980917;28;20979;-57
2023/01/05 02:52:46;;;;;;;23.93;14.83;;;8.90;99.90;;;8.85;67.92;95638.34;4976300;28;20515;-56
2023/01/05 02:55:16;;;;;;;20.77;12.57;;;8.90;99.90;;;8.84;67.72;95640.13;4975313;28;20541;-55
2023/01/05 02:57:49;;;;;;;18.20;12.93;;;8.90;99.90;;;8.84;67.83;95639.28;4975983;28;20491;-56
2023/01/05 03:00:18;;;;;;;25.13;14.80;;;8.90;99.90;;;8.84;68.00;95632.25;4978439;28;20853;-57
2023/01/05 03:02:48;;;;;;;22.73;12.87;;;8.90;99.90;;;8.84;67.79;95632.25;4977644;28;21075;-56
2023/01/05 03:05:17;;;;;;;22.20;13.83;;;8.90;99.90;;;8.83;67.81;95627.97;4981232;28;20535;-59
2023/01/05 03:07:44;;;;;;;21.10;14.20;;;8.90;99.90;;;8.83;67.59;95620.09;4984562;28;20494;-55
2023/01/05 03:15:42;;;;;;;24.63;13.00;;;8.80;99.90;;;8.78;67.91;95596.81;4978838;28;20511;-54
2023/01/05 03:18:12;;;;;;;20.67;13.03;;;8.80;99.90;;;8.76;67.94;95588.22;4980211;28;20525;-56
2023/01/05 03:20:44;;;;;;;17.27;12.13;;;8.80;99.90;;;8.75;67.98;95581.31;4976958;28;20501;-55
2023/01/05 03:37:09;;;;;;;26.17;14.63;;;8.70;99.90;;;8.61;68.02;95569.19;4981206;28;20540;-56
2023/01/05 03:39:37;;;;;;;24.90;14.30;;;8.70;99.90;;;8.61;68.29;95574.44;4976044;28;20452;-56
2023/01/05 03:42:04;;;;;;;19.50;13.40;;;8.70;99.90;;;8.60;68.08;95572.75;4980520;28;20489;-56
2023/01/05 03:44:31;;;;;;;21.00;13.40;;;8.70;99.90;;;8.59;68.17;95573.69;4941036;28;1140515;-55
2023/01/05 03:46:59;;;;;;;28.00;13.80;;;8.70;99.90;;;8.59;68.12;95568.44;4983444;28;20274;-56
2023/01/05 03:49:27;;;;;;;23.37;13.97;;;8.60;99.90;;;8.58;68.19;95577.28;4981672;28;20548;-55
2023/01/05 03:51:55;;;;;;;21.27;14.13;;;8.60;99.90;;;8.56;68.23;95573.91;4976777;28;20470;-55
2023/01/05 03:54:22;;;;;;;23.20;14.73;;;8.60;99.90;;;8.55;68.32;95567.00;4979454;28;20467;-57
2023/01/05 03:56:49;;;;;;;23.80;14.10;;;8.60;99.90;;;8.49;68.38;95570.06;4983661;28;20490;-57
2023/01/05 03:59:16;;;;;;;24.60;14.73;;;8.60;99.90;;;8.49;68.41;95577.94;4978795;28;20459;-57
2023/01/05 04:01:44;;;;;;;22.17;13.53;;;8.50;99.90;;;8.46;68.22;95569.44;4979779;28;20467;-55
2023/01/05 04:04:11;;;;;;;20.87;12.63;;;8.50;99.90;;;8.43;68.32;95570.47;4981511;28;20503;-57
2023/01/05 04:06:40;;;;;;;24.80;15.63;;;8.50;99.90;;;8.38;68.52;95568.19;4982025;28;20485;-57
2023/01/05 04:09:07;;;;;;;29.47;15.53;;;8.40;99.90;;;8.33;68.38;95564.22;4977506;28;20580;-57
2023/01/05 04:11:34;;;;;;;26.27;16.70;;;8.40;99.90;;;8.26;68.68;95564.63;4983119;28;20843;-56
2023/01/05 04:14:01;;;;;;;25.47;15.77;;;8.30;99.90;;;8.21;69.08;95561.53;4977088;28;20478;-57
2023/01/05 04:16:29;;;;;;;25.47;16.50;;;8.30;99.90;;;8.14;68.77;95569.91;4979819;28;21022;-56
2023/01/05 04:18:56;;;;;;;26.10;17.40;;;8.20;99.90;;;8.06;68.76;95566.03;4980626;28;21015;-56
2023/01/05 04:21:23;;;;;;;26.77;16.73;;;8.10;99.90;;;7.99;69.23;95566.56;4983774;28;20557;-56
2023/01/05 04:23:52;;;;;;;29.03;15.80;;;8.10;99.90;;;7.92;69.00;95560.94;4980071;28;20851;-57
2023/01/05 04:26:19;;;;;;;24.77;16.77;;;8.00;99.90;;;7.87;69.69;95557.81;4977775;28;20467;-57
2023/01/05 04:28:46;;;;;;;28.43;17.40;;;8.00;99.90;;;7.82;69.91;95558.13;4980921;28;20701;-57
2023/01/05 04:31:13;;;;;;;27.00;16.30;;;7.90;99.90;;;7.79;69.95;95555.72;4979898;28;20470;-56
2023/01/05 04:33:44;;;;;;;35.53;17.10;;;7.90;99.90;;;7.78;69.97;95554.03;4981234;28;20513;-54
2023/01/05 04:36:11;;;;;;;28.90;17.20;;;7.80;99.90;;;7.77;69.92;95556.75;4982975;28;20487;-54
2023/01/05 04:38:38;;;;;;;25.77;16.17;;;7.80;99.90;;;7.77;69.72;95567.22;4982315;28;21372;-57
2023/01/05 04:41:07;;;;;;;25.20;15.70;;;7.80;99.90;;;7.76;69.72;95562.94;4981228;28;20521;-57
2023/01/05 04:43:34;;;;;;;34.37;18.10;;;7.80;99.90;;;7.73;70.19;95561.38;4979125;28;20892;-55
2023/01/05 04:46:01;;;;;;;35.00;19.30;;;7.80;99.90;;;7.72;70.15;95563.13;4985817;28;20466;-55
2023/01/05 04:48:30;;;;;;;29.70;17.77;;;7.80;99.90;;;7.71;70.04;95560.63;4982715;28;20478;-56
2023/01/05 04:50:57;;;;;;;27.83;17.13;;;7.80;99.90;;;7.68;69.81;95559.06;4982924;28;20460;-56
2023/01/05 04:53:25;;;;;;;27.70;17.73;;;7.80;99.90;;;7.66;69.51;95562.72;4980441;28;20478;-55
2023/01/05 04:55:52;;;;;;;44.43;22.67;;;7.70;99.90;;;7.63;70.19;95560.31;4981116;28;21031;-56
2023/01/05 04:58:21;;;;;;;73.93;33.57;;;7.70;99.90;;;7.60;70.15;95560.53;4976853;28;20470;-55
2023/01/05 05:00:48;;;;;;;91.67;37.37;;;7.70;99.90;;;7.58;69.64;95559.81;4978702;28;20458;-56
2023/01/05 05:03:16;;;;;;;86.30;37.50;;;7.70;99.90;;;7.54;69.88;95562.63;4976848;28;20479;-56
2023/01/05 05:05:43;;;;;;;88.40;36.83;;;7.60;99.90;;;7.52;69.86;95574.13;4978943;28;20513;-55
2023/01/05 05:08:10;;;;;;;80.00;33.47;;;7.60;99.90;;;7.50;70.10;95566.38;4978491;28;20498;-57
2023/01/05 05:10:37;;;;;;;87.30;38.00;;;7.60;99.90;;;7.48;69.61;95573.50;4982418;28;20556;-57
2023/01/05 05:13:05;;;;;;;68.00;31.73;;;7.60;99.90;;;7.46;70.30;95575.38;4978501;28;20554;-57
2023/01/05 05:15:33;;;;;;;47.20;24.63;;;7.50;99.90;;;7.45;70.43;95567.63;4978546;28;20494;-56
2023/01/05 05:18:01;;;;;;;40.90;21.80;;;7.50;99.90;;;7.43;70.59;95582.59;4980615;28;20499;-55
2023/01/05 05:20:28;;;;;;;38.70;22.40;;;7.50;99.90;;;7.43;70.24;95580.81;4983707;28;20961;-55
2023/01/05 05:22:55;;;;;;;37.80;21.40;;;7.50;99.90;;;7.44;70.57;95577.28;4977530;28;20479;-56
2023/01/05 05:25:22;;;;;;;36.83;19.80;;;7.50;99.90;;;7.45;70.65;95571.09;4976027;28;20470;-57
2023/01/05 05:27:49;;;;;;;34.93;20.70;;;7.50;99.90;;;7.45;70.54;95572.88;4980339;28;20479;-56
2023/01/05 05:30:17;;;;;;;36.13;19.53;;;7.50;99.90;;;7.43;70.49;95564.28;4980999;28;21023;-56
2023/01/05 05:32:46;;;;;;;38.20;20.50;;;7.50;99.90;;;7.39;69.64;95553.19;4981363;28;20478;-57
2023/01/05 05:35:13;;;;;;;35.90;21.63;;;7.40;99.90;;;7.30;70.25;95559.88;4981709;28;20458;-57
2023/01/05 05:37:40;;;;;;;33.07;20.60;;;7.40;99.90;;;7.21;70.43;95551.81;4976980;28;20479;-57
2023/01/05 05:40:09;;;;;;;34.23;21.23;;;7.30;99.90;;;7.10;70.94;95553.34;4978801;28;20621;-57
2023/01/05 05:42:37;;;;;;;35.23;18.43;;;7.20;99.90;;;7.04;71.10;95547.69;4979498;28;20482;-56
2023/01/05 05:45:05;;;;;;;38.47;20.13;;;7.10;99.90;;;6.97;71.56;95545.50;4982158;28;20521;-55
2023/01/05 05:47:33;;;;;;;30.90;19.60;;;7.10;99.90;;;6.92;70.92;95539.69;4973463;28;20483;-57
2023/01/05 05:50:01;;;;;;;35.20;20.80;;;7.00;99.90;;;6.89;71.48;95539.06;4975983;28;20570;-57
2023/01/05 05:52:28;;;;;;;39.47;20.70;;;7.00;99.90;;;6.87;71.18;95538.34;4978404;28;20472;-57
2023/01/05 05:54:56;;;;;;;35.27;20.53;;;6.90;99.90;;;6.82;71.59;95534.25;4976343;28;20535;-54
2023/01/05 05:57:23;;;;;;;36.13;19.17;;;6.90;99.90;;;6.80;71.72;95535.28;4977585;28;20511;-57
2023/01/05 05:59:50;;;;;;;33.67;19.77;;;6.90;99.90;;;6.82;72.16;95533.41;4976096;28;20455;-57
2023/01/05 06:02:18;;;;;;;33.00;20.47;;;6.90;99.90;;;6.85;71.91;95529.75;4979208;28;20477;-58
2023/01/05 06:04:45;;;;;;;35.10;20.33;;;6.90;99.90;;;6.86;71.49;95528.81;4976204;28;20463;-56
2023/01/05 06:07:14;;;;;;;39.33;21.67;;;6.90;99.90;;;6.87;71.09;95528.72;4979832;28;20533;-56
2023/01/05 06:09:41;;;;;;;32.87;20.70;;;7.00;99.90;;;6.86;71.43;95521.81;4976425;28;20451;-56
2023/01/05 06:12:08;;;;;;;37.33;20.87;;;7.00;99.90;;;6.86;72.07;95513.13;4977946;28;20908;-57
2023/01/05 06:14:36;;;;;;;188.27;68.13;;;6.90;99.90;;;6.85;72.34;95511.44;4977207;28;20960;-56
2023/01/05 06:17:03;;;;;;;56.47;27.23;;;6.90;99.90;;;6.85;72.42;95516.66;4977033;28;20494;-56
2023/01/05 06:19:30;;;;;;;49.57;27.20;;;6.90;99.90;;;6.88;71.64;95519.09;4977766;28;20438;-56
2023/01/05 06:21:57;;;;;;;49.60;26.13;;;6.90;99.90;;;6.93;72.43;95509.19;4977373;28;20458;-56
2023/01/05 06:24:26;;;;;;;41.37;23.53;;;7.00;99.90;;;6.99;72.43;95508.78;4975706;28;20451;-56
2023/01/05 06:26:53;;;;;;;42.77;23.60;;;7.10;99.90;;;7.06;72.40;95510.03;4977538;28;20537;-57
2023/01/05 06:29:21;;;;;;;39.93;23.17;;;7.10;99.90;;;7.12;71.72;95504.38;4978141;28;21037;-57
2023/01/05 06:31:48;;;;;;;42.37;24.17;;;7.20;99.90;;;7.18;72.32;95509.19;4975975;28;20906;-56
2023/01/05 06:34:16;;;;;;;37.63;21.83;;;7.30;99.90;;;7.29;71.67;95511.09;4977287;28;20454;-57
2023/01/05 06:36:43;;;;;;;40.03;23.73;;;7.30;99.90;;;7.49;71.65;95522.81;4976591;28;20490;-56
2023/01/05 06:39:10;;;;;;;44.10;24.00;;;7.50;99.90;;;7.77;71.45;95515.69;4977493;28;20478;-55
2023/01/05 06:41:39;;;;;;;46.13;21.97;;;7.80;99.90;;;8.07;71.60;95511.84;4975812;28;20494;-57
2023/01/05 06:44:06;;;;;;;34.87;20.23;;;8.10;99.90;;;8.44;72.00;95514.50;4976203;28;20565;-56
2023/01/05 06:46:34;;;;;;;38.70;20.47;;;8.50;99.90;;;8.91;70.46;95509.38;4983743;28;20512;-55
2023/01/05 06:49:01;;;;;;;35.47;20.80;;;8.90;99.90;;;9.40;70.09;95512.69;4976229;28;20502;-57
2023/01/05 06:51:29;;;;;;;35.30;20.87;;;9.40;99.90;;;9.87;69.12;95516.09;4979280;28;20462;-57
2023/01/05 06:53:57;;;;;;;34.00;20.43;;;9.90;99.90;;;10.35;67.89;95505.31;4976973;28;20586;-54
2023/01/05 06:56:24;;;;;;;42.17;22.07;;;10.40;99.90;;;10.84;66.60;95495.25;4978120;28;20580;-56
2023/01/05 06:58:53;;;;;;;36.20;20.17;;;10.90;99.90;;;11.40;65.83;95502.03;4976753;28;20476;-57
2023/01/05 07:01:20;;;;;;;37.93;20.87;;;11.40;99.90;;;11.93;63.83;95502.88;4974208;28;20509;-56
2023/01/05 07:03:48;;;;;;;63.60;21.80;;;12.00;99.90;;;12.46;62.65;95493.91;4975940;28;20487;-56
2023/01/05 07:06:15;;;;;;;34.47;21.53;;;12.50;99.90;;;12.98;62.23;95491.84;4978430;28;20449;-56
2023/01/05 07:08:42;;;;;;;35.53;21.47;;;13.00;99.50;;;13.53;60.18;95493.06;4972128;28;20479;-57
2023/01/05 07:11:10;;;;;;;33.20;20.23;;;13.50;97.90;;;14.06;58.93;95489.00;4974131;28;20463;-56
2023/01/05 07:13:37;;;;;;;31.23;19.07;;;14.00;97.10;;;14.57;57.39;95492.91;4977869;28;20486;-56
2023/01/05 07:16:06;;;;;;;37.23;20.67;;;14.50;95.80;;;15.07;56.74;95483.63;4976686;28;20494;-57
2023/01/05 07:18:33;;;;;;;28.03;18.67;;;15.00;95.10;;;15.56;56.41;95491.16;4975212;28;20864;-57
2023/01/05 07:21:01;;;;;;;31.77;19.27;;;15.50;94.80;;;16.01;55.23;95489.31;4979950;28;20452;-56
2023/01/05 07:23:28;;;;;;;26.87;18.87;;;16.10;94.10;;;16.42;53.60;95490.31;4975279;28;20565;-59
2023/01/05 07:25:56;;;;;;;46.40;20.83;;;16.60;92.20;;;16.82;53.38;95487.91;4976768;28;20478;-57
2023/01/05 07:28:23;;;;;;;42.47;19.13;;;17.00;92.30;;;17.20;52.18;95483.84;4975283;28;20527;-56
2023/01/05 07:30:53;;;;;;;38.93;20.93;;;17.50;90.40;;;17.61;51.55;95477.66;4975872;28;20463;-55
2023/01/05 07:33:22;;;;;;;41.60;25.20;;;17.90;89.50;;;18.02;49.49;95479.47;4973970;28;20631;-56
2023/01/05 07:35:49;;;;;;;38.03;25.63;;;18.40;86.20;;;18.33;49.22;95478.69;4976335;28;20470;-56
2023/01/05 07:38:16;;;;;;;41.83;26.70;;;18.80;83.60;;;18.58;48.08;95468.75;4975105;28;20483;-55
2023/01/05 07:40:43;;;;;;;38.63;22.87;;;19.10;79.80;;;18.76;46.46;95461.31;4977763;28;20823;-57
2023/01/05 07:43:11;;;;;;;38.27;23.53;;;19.40;75.50;;;18.90;46.64;95459.75;4974143;28;21101;-58
2023/01/05 07:45:38;;;;;;;36.17;22.70;;;19.50;75.60;;;19.02;46.42;95465.47;4981036;28;20461;-57
2023/01/05 07:48:06;;;;;;;37.87;22.77;;;19.60;74.30;;;19.15;45.82;95456.91;4979780;28;20660;-55
2023/01/05 07:50:34;;;;;;;36.50;23.30;;;19.70;72.90;;;19.34;45.71;95450.25;4986539;28;20461;-57
2023/01/05 07:53:01;;;;;;;29.60;19.73;;;19.80;73.00;;;19.49;45.06;95447.63;4980190;28;20478;-57
2023/01/05 07:55:29;;;;;;;33.23;20.97;;;19.80;71.30;;;19.66;44.99;95448.28;4988362;28;20460;-56
2023/01/05 07:57:56;;;;;;;29.90;20.73;;;19.90;70.60;;;19.74;43.83;95453.53;4979508;28;20495;-56
2023/01/05 08:00:23;;;;;;;38.27;20.00;;;19.80;67.70;;;19.79;44.48;95455.69;4989932;28;20954;-56
2023/01/05 08:02:51;;;;;;;32.50;20.17;;;19.80;69.60;;;19.81;44.09;95451.00;4983248;28;20467;-55
2023/01/05 08:05:18;;;;;;;29.53;20.77;;;19.80;69.00;;;19.85;44.23;95449.63;4984071;28;20454;-56
2023/01/05 08:07:47;;;;;;;27.90;20.53;;;19.80;68.60;;;19.87;43.84;95439.59;4985138;28;20471;-57
2023/01/05 08:10:29;;;;;;;33.57;19.70;;;19.80;68.20;;;19.91;43.11;95445.38;4988156;28;21238;-56
2023/01/05 08:15:45;;;;;;;42.90;21.73;;;19.80;66.40;;;19.80;43.88;95444.00;4982009;28;20833;-57
2023/01/05 08:18:12;;;;;;;31.00;20.40;;;19.70;66.20;;;19.74;43.27;95442.88;4984725;28;20490;-57
2023/01/05 08:20:40;;;;;;;36.83;22.30;;;19.60;65.40;;;19.71;43.23;95441.38;4981363;28;20459;-57
2023/01/05 08:23:09;;;;;;;34.13;21.20;;;19.50;65.30;;;19.78;42.79;95446.84;4988193;28;20864;-55
2023/01/05 08:25:36;;;;;;;30.67;21.73;;;19.50;64.80;;;19.89;43.06;95437.56;4982424;28;20459;-57
2023/01/05 08:28:03;;;;;;;36.93;19.63;;;19.60;66.20;;;20.07;43.14;95445.22;4985975;28;20467;-57
2023/01/05 08:30:31;;;;;;;35.27;18.07;;;19.70;66.30;;;20.22;43.03;95447.88;4984059;28;20456;-55
2023/01/05 08:32:58;;;;;;;29.20;21.40;;;19.90;65.20;;;20.37;42.65;95438.00;4983842;28;21076;-57
2023/01/05 08:35:25;;;;;;;30.80;19.30;;;20.00;65.10;;;20.50;42.25;95437.31;4982183;28;20947;-57
2023/01/05 08:37:53;;;;;;;31.77;21.10;;;20.20;64.30;;;20.60;42.13;95439.69;4984909;28;20494;-57
2023/01/05 08:40:21;;;;;;;30.57;19.67;;;20.30;63.40;;;20.81;41.84;95435.44;4985646;28;20452;-57
2023/01/05 08:42:48;;;;;;;35.70;20.03;;;20.50;63.00;;;21.06;41.49;95434.03;4982335;28;20544;-56
2023/01/05 08:45:16;;;;;;;29.03;20.43;;;20.70;63.00;;;21.29;41.43;95436.50;4987726;28;20458;-59
2023/01/05 08:47:43;;;;;;;31.70;20.80;;;20.90;63.00;;;21.44;40.72;95422.22;4988282;28;20533;-57
2023/01/05 08:50:11;;;;;;;35.07;20.40;;;21.10;61.10;;;21.57;40.06;95418.88;4985588;28;20473;-56
2023/01/05 08:52:39;;;;;;;36.60;21.27;;;21.30;59.80;;;21.75;40.00;95418.34;4987013;28;20478;-57
2023/01/05 08:55:07;;;;;;;31.87;21.90;;;21.40;59.90;;;22.00;39.61;95413.38;4976896;28;20448;-58
2023/01/05 08:57:36;;;;;;;37.00;24.80;;;21.60;59.60;;;22.17;39.01;95406.66;4985923;28;20501;-55
2023/01/05 09:00:04;;;;;;;32.43;21.90;;;21.80;58.90;;;22.36;38.83;95406.97;4984619;28;20447;-56
2023/01/05 09:02:32;;;;;;;34.13;21.23;;;22.00;58.00;;;22.46;38.61;95394.00;4983010;28;20503;-56
2023/01/05 09:04:59;;;;;;;34.10;19.43;;;22.10;57.70;;;22.60;38.77;95389.50;4983583;28;20447;-59
2023/01/05 09:07:27;;;;;;;32.23;17.90;;;22.20;56.90;;;22.76;37.83;95385.66;4984478;28;20478;-57
2023/01/05 09:09:54;;;;;;;22.90;14.73;;;22.40;56.60;;;23.02;37.43;95378.66;4981936;28;20443;-59
2023/01/05 09:12:21;;;;;;;19.20;12.43;;;22.60;56.30;;;23.26;37.00;95372.72;4985254;28;20499;-57
2023/01/05 09:14:50;;;;;;;17.93;12.83;;;22.80;55.10;;;23.39;36.77;95358.47;4981320;28;20443;-56
2023/01/05 09:17:17;;;;;;;18.50;10.63;;;22.90;54.10;;;23.54;36.36;95352.88;4983455;28;20503;-58
2023/01/05 09:19:44;;;;;;;12.57;9.80;;;23.00;53.20;;;23.69;35.44;95331.16;4986979;28;20465;-57
2023/01/05 09:22:12;;;;;;;10.30;7.73;;;23.10;53.20;;;23.79;35.96;95326.16;4983675;28;21029;-56
2023/01/05 09:24:39;;;;;;;23.30;9.43;;;23.30;52.40;;;23.92;35.17;95324.50;4985502;28;20513;-58
2023/01/05 09:27:06;;;;;;;19.27;10.37;;;23.40;52.50;;;24.07;34.51;95326.91;4982733;28;20554;-57
2023/01/05 09:29:33;;;;;;;13.10;10.10;;;23.60;52.10;;;24.21;34.78;95330.38;4984674;28;20455;-59
2023/01/05 09:32:02;;;;;;;13.60;9.50;;;23.70;51.60;;;24.29;33.81;95322.91;4981238;28;20479;-54
2023/01/05 09:34:29;;;;;;;14.30;10.07;;;23.80;50.30;;;24.39;33.78;95324.31;4985212;28;20455;-58
2023/01/05 09:36:57;;;;;;;15.30;9.47;;;23.90;49.30;;;24.44;33.42;95313.72;4978171;28;20495;-55
2023/01/05 09:39:24;;;;;;;12.83;9.83;;;24.00;49.90;;;24.47;34.42;95299.84;4985974;28;20508;-58
2023/01/05 09:41:53;;;;;;;16.33;10.07;;;24.00;50.70;;;24.52;33.30;95294.63;4979714;28;20459;-58
2023/01/05 09:44:28;;;;;;;13.63;10.90;;;24.10;49.40;;;24.55;31.17;95280.75;4981395;28;20469;-57
2023/01/05 09:46:56;;;;;;;11.93;10.10;;;24.10;46.30;;;24.45;33.13;95278.53;4985686;28;20583;-58
2023/01/05 09:49:25;;;;;;;16.83;11.40;;;24.10;48.30;;;24.44;33.49;95278.75;4982388;28;20463;-56
2023/01/05 09:51:55;;;;;;;12.27;10.57;;;24.00;48.50;;;24.52;32.68;95270.44;4982001;28;20518;-57
2023/01/05 09:54:23;;;;;;;15.90;11.37;;;24.00;47.90;;;24.64;32.84;95266.03;4982254;28;20815;-57
2023/01/05 09:56:50;;;;;;;15.07;10.70;;;24.10;48.60;;;24.70;33.04;95262.47;4982962;28;20498;-57
2023/01/05 09:59:21;;;;;;;20.87;10.53;;;24.10;48.30;;;24.72;32.42;95247.97;4981933;28;20967;-57
2023/01/05 10:01:48;;;;;;;15.80;10.27;;;24.20;47.30;;;24.85;32.91;95253.28;4983900;28;20454;-57
2023/01/05 10:04:17;;;;;;;15.50;10.20;;;24.30;48.60;;;25.03;31.09;95255.97;4976007;28;20878;-57
2023/01/05 10:06:48;;;;;;;13.43;10.27;;;24.40;46.70;;;25.09;30.21;95253.47;4985873;28;20812;-58
2023/01/05 10:09:17;;;;;;;10.90;9.20;;;24.60;44.80;;;25.02;31.81;95242.78;4977664;28;20513;-56
2023/01/05 10:14:36;;;;;;;13.40;9.67;;;24.50;46.30;;;24.94;31.62;95241.19;4980523;28;20457;-58
2023/01/05 10:17:05;;;;;;;11.80;9.27;;;24.50;46.30;;;24.94;32.05;95243.88;4981963;28;20495;-56
2023/01/05 10:19:32;;;;;;;10.50;8.20;;;24.50;46.30;;;24.98;31.62;95246.94;4975260;28;20448;-58
2023/01/05 10:22:06;;;;;;;11.43;8.80;;;24.50;45.90;;;25.04;30.70;95237.97;4981909;28;20459;-56
2023/01/05 10:24:43;;;;;;;22.63;15.03;;;24.60;45.30;;;25.16;31.46;95235.38;4977534;28;20463;-58
2023/01/05 10:27:15;;;;;;;19.37;15.30;;;24.70;46.30;;;25.27;31.74;95233.81;4981502;28;21140;-58
2023/01/05 10:29:44;;;;;;;17.53;8.87;;;24.80;46.30;;;25.48;31.72;95227.19;4979787;28;20454;-56
2023/01/05 10:32:22;;;;;;;7.50;6.90;;;25.00;46.20;;;25.67;30.59;95212.69;4978808;28;20471;-57
2023/01/05 10:34:56;;;;;;;14.00;7.20;;;25.20;43.90;;;25.91;30.30;95218.19;4972361;28;20458;-56
2023/01/05 10:37:53;;;;;;;12.07;5.73;;;25.40;45.10;;;26.26;29.51;95206.75;4984723;28;20505;-57
2023/01/05 10:40:29;;;;;;;51.23;8.47;;;25.70;43.80;;;26.79;30.30;95205.94;4972857;28;20462;-56
2023/01/05 10:43:15;;;;;;;7.57;6.13;;;26.10;44.80;;;27.39;29.29;95204.09;4981710;28;20977;-56
2023/01/05 10:45:42;;;;;;;6.40;5.80;;;26.60;44.40;;;28.01;28.86;95197.22;4983760;28;20469;-55
2023/01/05 10:48:13;;;;;;;14.67;7.80;;;27.20;43.40;;;28.66;27.94;95197.88;4982813;28;20871;-56
2023/01/05 10:50:40;;;;;;;9.80;6.10;;;27.80;42.20;;;29.12;28.01;95201.28;4986118;28;21000;-54
2023/01/05 10:53:11;;;;;;;19.57;6.87;;;28.20;42.40;;;29.44;28.01;95184.44;4982540;28;20510;-59
2023/01/05 10:55:58;;;;;;;13.20;6.20;;;28.60;41.40;;;29.83;26.68;95181.69;4973808;28;20442;-56
2023/01/05 10:58:27;;;;;;;7.77;5.40;;;29.00;39.90;;;30.13;26.29;95189.34;4982078;28;20495;-57
2023/01/05 11:00:56;;;;;;;14.10;5.93;;;29.40;39.00;;;30.48;25.53;95184.53;4983534;28;20446;-56